sensor_id;sensor_type;location;lat;lon;timestamp;pressure;altitude;pressure_sealevel;temperature;humidity
59686;BME280;45554;51.096;16.976;2022-08-01T00:00:10;99905.80;;;17.11;61.98
59686;BME280;45554;51.096;16.976;2022-08-01T00:02:58;99905.33;;;17.06;62.28
59686;BME280;45554;51.096;16.976;2022-08-01T00:05:28;99908.02;;;17.04;62.36
59686;BME280;45554;51.096;16.976;2022-08-01T00:07:58;99905.58;;;16.99;62.53
59686;BME280;45554;51.096;16.976;2022-08-01T00:10:28;99908.59;;;16.95;62.68
59686;BME280;45554;51.096;16.976;2022-08-01T00:12:56;99911.42;;;16.91;62.70
59686;BME280;45554;51.096;16.976;2022-08-01T00:15:27;99906.28;;;16.87;62.91
59686;BME280;45554;51.096;16.976;2022-08-01T00:17:54;99910.70;;;16.85;63.06
59686;BME280;45554;51.096;16.976;2022-08-01T00:20:23;99912.02;;;16.84;63.08
59686;BME280;45554;51.096;16.976;2022-08-01T00:22:51;99905.78;;;16.82;63.16
59686;BME280;45554;51.096;16.976;2022-08-01T00:25:19;99905.42;;;16.82;63.28
59686;BME280;45554;51.096;16.976;2022-08-01T00:28:01;99903.60;;;16.81;63.27
59686;BME280;45554;51.096;16.976;2022-08-01T00:30:31;99901.98;;;16.80;63.41
59686;BME280;45554;51.096;16.976;2022-08-01T00:32:58;99898.90;;;16.78;63.47
59686;BME280;45554;51.096;16.976;2022-08-01T00:35:27;99899.77;;;16.78;63.77
59686;BME280;45554;51.096;16.976;2022-08-01T00:37:55;99897.77;;;16.77;63.80
59686;BME280;45554;51.096;16.976;2022-08-01T00:40:23;99899.16;;;16.75;63.91
59686;BME280;45554;51.096;16.976;2022-08-01T00:42:55;99895.73;;;16.74;64.07
59686;BME280;45554;51.096;16.976;2022-08-01T00:45:23;99898.80;;;16.73;64.30
59686;BME280;45554;51.096;16.976;2022-08-01T00:47:52;99900.22;;;16.71;64.34
59686;BME280;45554;51.096;16.976;2022-08-01T00:50:22;99892.17;;;16.70;64.55
59686;BME280;45554;51.096;16.976;2022-08-01T00:52:52;99891.33;;;16.69;64.67
59686;BME280;45554;51.096;16.976;2022-08-01T00:55:20;99889.09;;;16.71;64.85
59686;BME280;45554;51.096;16.976;2022-08-01T00:57:49;99887.45;;;16.71;65.08
59686;BME280;45554;51.096;16.976;2022-08-01T01:00:34;99882.16;;;16.71;65.15
59686;BME280;45554;51.096;16.976;2022-08-01T01:03:23;99880.23;;;16.71;65.27
59686;BME280;45554;51.096;16.976;2022-08-01T01:06:25;99885.38;;;16.69;65.22
59686;BME280;45554;51.096;16.976;2022-08-01T01:11:45;99889.27;;;16.65;65.44
59686;BME280;45554;51.096;16.976;2022-08-01T01:14:23;99888.76;;;16.63;65.62
59686;BME280;45554;51.096;16.976;2022-08-01T01:16:58;99889.22;;;16.61;65.63
59686;BME280;45554;51.096;16.976;2022-08-01T01:19:30;99890.20;;;16.60;65.68
59686;BME280;45554;51.096;16.976;2022-08-01T01:25:03;99883.48;;;16.58;65.83
59686;BME280;45554;51.096;16.976;2022-08-01T01:28:01;99880.60;;;16.56;65.89
59686;BME280;45554;51.096;16.976;2022-08-01T01:30:25;99879.13;;;16.55;66.22
59686;BME280;45554;51.096;16.976;2022-08-01T01:32:59;99877.50;;;16.55;66.34
59686;BME280;45554;51.096;16.976;2022-08-01T01:35:33;99876.21;;;16.54;66.33
59686;BME280;45554;51.096;16.976;2022-08-01T01:38:15;99871.04;;;16.52;66.40
59686;BME280;45554;51.096;16.976;2022-08-01T01:40:46;99864.20;;;16.50;66.50
59686;BME280;45554;51.096;16.976;2022-08-01T01:43:16;99865.34;;;16.51;66.60
59686;BME280;45554;51.096;16.976;2022-08-01T01:45:45;99868.33;;;16.51;66.61
59686;BME280;45554;51.096;16.976;2022-08-01T01:48:18;99867.23;;;16.51;66.52
59686;BME280;45554;51.096;16.976;2022-08-01T01:50:47;99868.23;;;16.52;66.65
59686;BME280;45554;51.096;16.976;2022-08-01T01:53:18;99868.30;;;16.53;66.65
59686;BME280;45554;51.096;16.976;2022-08-01T01:55:50;99863.02;;;16.55;66.67
59686;BME280;45554;51.096;16.976;2022-08-01T01:58:22;99863.60;;;16.58;66.85
59686;BME280;45554;51.096;16.976;2022-08-01T02:00:52;99861.52;;;16.60;66.79
59686;BME280;45554;51.096;16.976;2022-08-01T02:03:23;99858.23;;;16.62;66.86
59686;BME280;45554;51.096;16.976;2022-08-01T02:05:56;99861.71;;;16.62;66.67
59686;BME280;45554;51.096;16.976;2022-08-01T02:08:27;99862.81;;;16.62;66.79
59686;BME280;45554;51.096;16.976;2022-08-01T02:11:00;99857.34;;;16.61;66.82
59686;BME280;45554;51.096;16.976;2022-08-01T02:13:52;99861.69;;;16.60;66.67
59686;BME280;45554;51.096;16.976;2022-08-01T02:16:23;99864.71;;;16.58;66.56
59686;BME280;45554;51.096;16.976;2022-08-01T02:18:53;99867.25;;;16.57;66.53
59686;BME280;45554;51.096;16.976;2022-08-01T02:21:39;99868.83;;;16.56;66.45
59686;BME280;45554;51.096;16.976;2022-08-01T02:24:13;99869.95;;;16.53;66.30
59686;BME280;45554;51.096;16.976;2022-08-01T02:26:46;99868.88;;;16.51;66.27
59686;BME280;45554;51.096;16.976;2022-08-01T02:29:22;99866.93;;;16.51;66.51
59686;BME280;45554;51.096;16.976;2022-08-01T02:31:54;99862.84;;;16.49;66.42
59686;BME280;45554;51.096;16.976;2022-08-01T02:34:24;99861.64;;;16.47;66.31
59686;BME280;45554;51.096;16.976;2022-08-01T02:36:56;99861.35;;;16.42;66.23
59686;BME280;45554;51.096;16.976;2022-08-01T02:39:26;99859.70;;;16.36;66.25
59686;BME280;45554;51.096;16.976;2022-08-01T02:41:59;99854.14;;;16.31;66.36
59686;BME280;45554;51.096;16.976;2022-08-01T02:44:36;99850.90;;;16.27;66.36
59686;BME280;45554;51.096;16.976;2022-08-01T02:47:06;99853.44;;;16.25;66.51
59686;BME280;45554;51.096;16.976;2022-08-01T02:49:42;99853.95;;;16.23;66.71
59686;BME280;45554;51.096;16.976;2022-08-01T02:52:16;99848.68;;;16.22;66.79
59686;BME280;45554;51.096;16.976;2022-08-01T02:54:48;99846.77;;;16.22;66.91
59686;BME280;45554;51.096;16.976;2022-08-01T02:57:20;99843.77;;;16.22;66.98
59686;BME280;45554;51.096;16.976;2022-08-01T02:59:54;99844.10;;;16.22;67.01
59686;BME280;45554;51.096;16.976;2022-08-01T03:02:24;99847.14;;;16.22;66.85
59686;BME280;45554;51.096;16.976;2022-08-01T03:04:53;99849.07;;;16.20;66.83
59686;BME280;45554;51.096;16.976;2022-08-01T03:07:24;99847.05;;;16.18;66.96
59686;BME280;45554;51.096;16.976;2022-08-01T03:10:01;99845.56;;;16.17;67.07
59686;BME280;45554;51.096;16.976;2022-08-01T03:12:33;99848.59;;;16.19;67.21
59686;BME280;45554;51.096;16.976;2022-08-01T03:15:03;99848.27;;;16.21;67.31
59686;BME280;45554;51.096;16.976;2022-08-01T03:17:36;99855.34;;;16.23;67.37
59686;BME280;45554;51.096;16.976;2022-08-01T03:20:10;99851.28;;;16.23;67.20
59686;BME280;45554;51.096;16.976;2022-08-01T03:22:42;99851.00;;;16.22;67.54
59686;BME280;45554;51.096;16.976;2022-08-01T03:25:14;99853.50;;;16.30;67.52
59686;BME280;45554;51.096;16.976;2022-08-01T03:27:45;99854.33;;;16.37;67.53
59686;BME280;45554;51.096;16.976;2022-08-01T03:30:17;99849.88;;;16.44;67.55
59686;BME280;45554;51.096;16.976;2022-08-01T03:32:47;99850.45;;;16.49;67.56
59686;BME280;45554;51.096;16.976;2022-08-01T03:35:15;99856.52;;;16.53;67.40
59686;BME280;45554;51.096;16.976;2022-08-01T03:37:46;99855.24;;;16.55;67.37
59686;BME280;45554;51.096;16.976;2022-08-01T03:40:43;99849.42;;;16.59;67.30
59686;BME280;45554;51.096;16.976;2022-08-01T03:43:19;99848.34;;;16.65;67.35
59686;BME280;45554;51.096;16.976;2022-08-01T03:45:51;99848.75;;;16.69;67.37
59686;BME280;45554;51.096;16.976;2022-08-01T03:48:28;99857.86;;;16.72;67.23
59686;BME280;45554;51.096;16.976;2022-08-01T03:50:58;99859.80;;;16.74;67.20
59686;BME280;45554;51.096;16.976;2022-08-01T03:53:30;99859.98;;;16.78;67.23
59686;BME280;45554;51.096;16.976;2022-08-01T03:56:01;99864.30;;;16.83;67.16
59686;BME280;45554;51.096;16.976;2022-08-01T03:58:30;99864.63;;;16.87;67.06
59686;BME280;45554;51.096;16.976;2022-08-01T04:00:58;99865.30;;;16.92;67.00
59686;BME280;45554;51.096;16.976;2022-08-01T04:03:27;99869.33;;;16.95;66.97
59686;BME280;45554;51.096;16.976;2022-08-01T04:05:55;99870.48;;;16.97;66.98
59686;BME280;45554;51.096;16.976;2022-08-01T04:08:39;99875.09;;;16.99;66.88
59686;BME280;45554;51.096;16.976;2022-08-01T04:11:09;99869.68;;;17.00;66.85
59686;BME280;45554;51.096;16.976;2022-08-01T04:13:38;99872.73;;;17.03;66.93
59686;BME280;45554;51.096;16.976;2022-08-01T04:16:06;99870.99;;;17.04;66.83
59686;BME280;45554;51.096;16.976;2022-08-01T04:18:35;99867.19;;;17.03;66.85
59686;BME280;45554;51.096;16.976;2022-08-01T04:21:03;99865.42;;;17.03;66.85
59686;BME280;45554;51.096;16.976;2022-08-01T04:23:32;99865.25;;;17.03;66.95
59686;BME280;45554;51.096;16.976;2022-08-01T04:26:03;99865.66;;;17.05;66.99
59686;BME280;45554;51.096;16.976;2022-08-01T04:28:34;99863.17;;;17.07;66.95
59686;BME280;45554;51.096;16.976;2022-08-01T04:31:08;99862.48;;;17.11;67.05
59686;BME280;45554;51.096;16.976;2022-08-01T04:33:40;99868.91;;;17.13;67.05
59686;BME280;45554;51.096;16.976;2022-08-01T04:36:11;99869.76;;;17.18;67.08
59686;BME280;45554;51.096;16.976;2022-08-01T04:38:45;99870.13;;;17.20;66.94
59686;BME280;45554;51.096;16.976;2022-08-01T04:41:17;99867.33;;;17.23;67.01
59686;BME280;45554;51.096;16.976;2022-08-01T04:43:46;99871.81;;;17.27;66.98
59686;BME280;45554;51.096;16.976;2022-08-01T04:46:15;99873.04;;;17.31;67.01
59686;BME280;45554;51.096;16.976;2022-08-01T04:48:43;99869.84;;;17.35;66.97
59686;BME280;45554;51.096;16.976;2022-08-01T04:51:15;99874.22;;;17.39;67.02
59686;BME280;45554;51.096;16.976;2022-08-01T04:53:44;99876.43;;;17.43;66.88
59686;BME280;45554;51.096;16.976;2022-08-01T04:56:14;99871.11;;;17.45;66.84
59686;BME280;45554;51.096;16.976;2022-08-01T04:58:42;99874.79;;;17.49;66.86
59686;BME280;45554;51.096;16.976;2022-08-01T05:01:11;99874.98;;;17.55;66.77
59686;BME280;45554;51.096;16.976;2022-08-01T05:03:39;99874.63;;;17.61;66.80
59686;BME280;45554;51.096;16.976;2022-08-01T05:06:07;99872.30;;;17.69;66.70
59686;BME280;45554;51.096;16.976;2022-08-01T05:08:35;99867.83;;;17.77;66.71
59686;BME280;45554;51.096;16.976;2022-08-01T05:11:03;99867.78;;;17.85;66.58
59686;BME280;45554;51.096;16.976;2022-08-01T05:13:32;99868.73;;;17.93;66.51
59686;BME280;45554;51.096;16.976;2022-08-01T05:16:00;99868.61;;;17.98;66.49
59686;BME280;45554;51.096;16.976;2022-08-01T05:18:31;99870.52;;;18.04;66.47
59686;BME280;45554;51.096;16.976;2022-08-01T05:20:59;99869.64;;;18.08;66.31
59686;BME280;45554;51.096;16.976;2022-08-01T05:23:28;99873.84;;;18.10;66.32
59686;BME280;45554;51.096;16.976;2022-08-01T05:26:10;99876.89;;;18.12;66.48
59686;BME280;45554;51.096;16.976;2022-08-01T05:28:41;99879.02;;;18.14;66.55
59686;BME280;45554;51.096;16.976;2022-08-01T05:31:09;99874.86;;;18.19;66.58
59686;BME280;45554;51.096;16.976;2022-08-01T05:33:38;99871.77;;;18.23;66.60
59686;BME280;45554;51.096;16.976;2022-08-01T05:36:06;99867.77;;;18.30;66.59
59686;BME280;45554;51.096;16.976;2022-08-01T05:38:36;99865.02;;;18.37;66.58
59686;BME280;45554;51.096;16.976;2022-08-01T05:41:04;99868.45;;;18.44;66.61
59686;BME280;45554;51.096;16.976;2022-08-01T05:43:33;99871.27;;;18.51;66.55
59686;BME280;45554;51.096;16.976;2022-08-01T05:46:01;99868.45;;;18.57;66.47
59686;BME280;45554;51.096;16.976;2022-08-01T05:48:29;99870.06;;;18.64;66.43
59686;BME280;45554;51.096;16.976;2022-08-01T05:50:59;99868.42;;;18.72;66.45
59686;BME280;45554;51.096;16.976;2022-08-01T05:53:27;99867.89;;;18.80;66.23
59686;BME280;45554;51.096;16.976;2022-08-01T05:55:56;99876.46;;;18.88;66.14
59686;BME280;45554;51.096;16.976;2022-08-01T05:58:25;99872.73;;;18.97;66.12
59686;BME280;45554;51.096;16.976;2022-08-01T06:00:53;99871.40;;;19.08;65.87
59686;BME280;45554;51.096;16.976;2022-08-01T06:03:22;99869.75;;;19.22;65.74
59686;BME280;45554;51.096;16.976;2022-08-01T06:05:57;99868.06;;;19.35;65.59
59686;BME280;45554;51.096;16.976;2022-08-01T06:08:25;99868.48;;;19.51;65.40
59686;BME280;45554;51.096;16.976;2022-08-01T06:10:54;99866.52;;;19.65;65.12
59686;BME280;45554;51.096;16.976;2022-08-01T06:13:21;99868.20;;;19.82;64.72
59686;BME280;45554;51.096;16.976;2022-08-01T06:15:55;99869.27;;;19.98;64.43
59686;BME280;45554;51.096;16.976;2022-08-01T06:18:23;99869.09;;;20.15;64.24
59686;BME280;45554;51.096;16.976;2022-08-01T06:20:51;99873.15;;;20.30;64.12
59686;BME280;45554;51.096;16.976;2022-08-01T06:23:21;99869.70;;;20.47;63.95
59686;BME280;45554;51.096;16.976;2022-08-01T06:25:59;99869.56;;;20.64;63.75
59686;BME280;45554;51.096;16.976;2022-08-01T06:28:28;99870.13;;;20.79;63.43
59686;BME280;45554;51.096;16.976;2022-08-01T06:30:59;99872.64;;;20.96;63.32
59686;BME280;45554;51.096;16.976;2022-08-01T06:33:27;99863.27;;;21.07;62.95
59686;BME280;45554;51.096;16.976;2022-08-01T06:35:56;99868.25;;;21.21;62.81
59686;BME280;45554;51.096;16.976;2022-08-01T06:38:24;99870.34;;;21.32;62.57
59686;BME280;45554;51.096;16.976;2022-08-01T06:40:52;99872.28;;;21.42;62.26
59686;BME280;45554;51.096;16.976;2022-08-01T06:43:20;99875.34;;;21.53;61.81
59686;BME280;45554;51.096;16.976;2022-08-01T06:45:49;99872.91;;;21.64;61.62
59686;BME280;45554;51.096;16.976;2022-08-01T06:48:19;99875.34;;;21.73;60.94
59686;BME280;45554;51.096;16.976;2022-08-01T06:50:48;99873.05;;;21.83;60.63
59686;BME280;45554;51.096;16.976;2022-08-01T06:53:16;99870.66;;;21.94;60.54
59686;BME280;45554;51.096;16.976;2022-08-01T06:55:44;99875.79;;;22.04;59.70
59686;BME280;45554;51.096;16.976;2022-08-01T06:58:12;99877.52;;;22.13;59.88
59686;BME280;45554;51.096;16.976;2022-08-01T07:00:40;99876.12;;;22.27;59.90
59686;BME280;45554;51.096;16.976;2022-08-01T07:03:09;99874.87;;;22.41;59.63
59686;BME280;45554;51.096;16.976;2022-08-01T07:05:37;99874.61;;;22.57;58.75
59686;BME280;45554;51.096;16.976;2022-08-01T07:08:05;99870.23;;;22.69;58.12
59686;BME280;45554;51.096;16.976;2022-08-01T07:10:34;99870.23;;;22.79;57.62
59686;BME280;45554;51.096;16.976;2022-08-01T07:13:05;99881.05;;;22.90;56.58
59686;BME280;45554;51.096;16.976;2022-08-01T07:15:32;99887.88;;;22.95;54.66
59686;BME280;45554;51.096;16.976;2022-08-01T07:18:01;99887.21;;;23.02;54.30
59686;BME280;45554;51.096;16.976;2022-08-01T07:20:31;99886.67;;;23.10;54.51
59686;BME280;45554;51.096;16.976;2022-08-01T07:23:08;99882.64;;;23.17;53.99
59686;BME280;45554;51.096;16.976;2022-08-01T07:25:39;99886.25;;;23.26;54.01
59686;BME280;45554;51.096;16.976;2022-08-01T07:28:19;99884.71;;;23.34;53.48
59686;BME280;45554;51.096;16.976;2022-08-01T07:30:47;99883.58;;;23.37;52.83
59686;BME280;45554;51.096;16.976;2022-08-01T07:33:15;99884.69;;;23.41;52.92
59686;BME280;45554;51.096;16.976;2022-08-01T07:35:44;99886.65;;;23.48;53.19
59686;BME280;45554;51.096;16.976;2022-08-01T07:38:12;99896.51;;;23.52;52.82
59686;BME280;45554;51.096;16.976;2022-08-01T07:40:44;99891.56;;;23.55;52.55
59686;BME280;45554;51.096;16.976;2022-08-01T07:43:12;99888.46;;;23.57;52.57
59686;BME280;45554;51.096;16.976;2022-08-01T07:45:42;99892.22;;;23.62;52.64
59686;BME280;45554;51.096;16.976;2022-08-01T07:48:13;99893.84;;;23.68;52.33
59686;BME280;45554;51.096;16.976;2022-08-01T07:50:41;99898.05;;;23.70;51.96
59686;BME280;45554;51.096;16.976;2022-08-01T07:53:09;99899.27;;;23.72;52.02
59686;BME280;45554;51.096;16.976;2022-08-01T07:55:38;99900.15;;;23.75;51.73
59686;BME280;45554;51.096;16.976;2022-08-01T07:58:06;99894.99;;;23.78;51.74
59686;BME280;45554;51.096;16.976;2022-08-01T08:00:36;99903.05;;;23.81;51.36
59686;BME280;45554;51.096;16.976;2022-08-01T08:03:04;99899.54;;;23.79;51.09
59686;BME280;45554;51.096;16.976;2022-08-01T08:05:32;99903.76;;;23.78;51.38
59686;BME280;45554;51.096;16.976;2022-08-01T08:08:23;99904.63;;;23.86;51.69
59686;BME280;45554;51.096;16.976;2022-08-01T08:10:51;99908.30;;;23.91;51.15
59686;BME280;45554;51.096;16.976;2022-08-01T08:13:19;99902.03;;;23.94;51.08
59686;BME280;45554;51.096;16.976;2022-08-01T08:15:47;99902.92;;;24.03;51.49
59686;BME280;45554;51.096;16.976;2022-08-01T08:18:15;99901.59;;;24.15;51.35
59686;BME280;45554;51.096;16.976;2022-08-01T08:20:43;99906.91;;;24.26;50.95
59686;BME280;45554;51.096;16.976;2022-08-01T08:23:11;99918.20;;;24.26;50.17
59686;BME280;45554;51.096;16.976;2022-08-01T08:26:13;99916.63;;;24.20;50.44
59686;BME280;45554;51.096;16.976;2022-08-01T08:28:41;99922.58;;;24.10;52.14
59686;BME280;45554;51.096;16.976;2022-08-01T08:31:09;99920.08;;;23.91;51.94
59686;BME280;45554;51.096;16.976;2022-08-01T08:33:57;99926.84;;;23.71;53.56
59686;BME280;45554;51.096;16.976;2022-08-01T08:36:25;99926.65;;;23.53;53.89
59686;BME280;45554;51.096;16.976;2022-08-01T08:39:00;99926.89;;;23.37;53.93
59686;BME280;45554;51.096;16.976;2022-08-01T08:41:30;99926.86;;;23.26;54.40
59686;BME280;45554;51.096;16.976;2022-08-01T08:44:06;99932.13;;;23.16;54.48
59686;BME280;45554;51.096;16.976;2022-08-01T08:46:40;99934.02;;;23.10;54.80
59686;BME280;45554;51.096;16.976;2022-08-01T08:49:10;99933.72;;;23.08;54.78
59686;BME280;45554;51.096;16.976;2022-08-01T08:51:39;99928.20;;;23.09;54.70
59686;BME280;45554;51.096;16.976;2022-08-01T08:54:11;99929.91;;;23.15;54.50
59686;BME280;45554;51.096;16.976;2022-08-01T08:56:43;99932.41;;;23.23;54.85
59686;BME280;45554;51.096;16.976;2022-08-01T08:59:12;99931.71;;;23.32;54.65
59686;BME280;45554;51.096;16.976;2022-08-01T09:01:43;99938.48;;;23.44;54.28
59686;BME280;45554;51.096;16.976;2022-08-01T09:04:11;99943.14;;;23.54;53.92
59686;BME280;45554;51.096;16.976;2022-08-01T09:06:40;99942.42;;;23.65;53.70
59686;BME280;45554;51.096;16.976;2022-08-01T09:09:09;99939.48;;;23.77;53.56
59686;BME280;45554;51.096;16.976;2022-08-01T09:11:37;99944.29;;;23.88;52.90
59686;BME280;45554;51.096;16.976;2022-08-01T09:16:37;99938.82;;;24.06;52.34
59686;BME280;45554;51.096;16.976;2022-08-01T09:19:17;99935.81;;;24.19;52.00
59686;BME280;45554;51.096;16.976;2022-08-01T09:22:10;99941.93;;;24.36;51.30
59686;BME280;45554;51.096;16.976;2022-08-01T09:24:39;99944.35;;;24.51;51.14
59686;BME280;45554;51.096;16.976;2022-08-01T09:27:19;99941.35;;;24.62;50.25
59686;BME280;45554;51.096;16.976;2022-08-01T09:29:53;99937.15;;;24.75;50.76
59686;BME280;45554;51.096;16.976;2022-08-01T09:32:31;99937.56;;;24.95;50.35
59686;BME280;45554;51.096;16.976;2022-08-01T09:35:23;99930.21;;;25.19;50.50
59686;BME280;45554;51.096;16.976;2022-08-01T09:38:21;99929.07;;;25.44;49.67
59686;BME280;45554;51.096;16.976;2022-08-01T09:40:57;99924.65;;;25.60;49.54
59686;BME280;45554;51.096;16.976;2022-08-01T09:43:27;99923.63;;;25.73;49.55
59686;BME280;45554;51.096;16.976;2022-08-01T09:45:59;99927.04;;;25.87;48.51
59686;BME280;45554;51.096;16.976;2022-08-01T09:48:27;99928.85;;;25.96;47.50
59686;BME280;45554;51.096;16.976;2022-08-01T09:50:58;99927.56;;;25.94;47.03
59686;BME280;45554;51.096;16.976;2022-08-01T09:53:41;99927.13;;;25.86;47.45
59686;BME280;45554;51.096;16.976;2022-08-01T09:56:20;99923.80;;;25.75;47.38
59686;BME280;45554;51.096;16.976;2022-08-01T09:58:58;99923.77;;;25.71;47.30
59686;BME280;45554;51.096;16.976;2022-08-01T10:01:45;99919.39;;;25.68;47.71
59686;BME280;45554;51.096;16.976;2022-08-01T10:04:17;99913.16;;;25.74;48.40
59686;BME280;45554;51.096;16.976;2022-08-01T10:06:49;99921.98;;;25.81;48.30
59686;BME280;45554;51.096;16.976;2022-08-01T10:09:35;99916.81;;;25.85;48.23
59686;BME280;45554;51.096;16.976;2022-08-01T10:12:09;99913.20;;;25.91;48.47
59686;BME280;45554;51.096;16.976;2022-08-01T10:14:45;99917.46;;;25.96;47.95
59686;BME280;45554;51.096;16.976;2022-08-01T10:17:19;99913.30;;;25.98;48.17
59686;BME280;45554;51.096;16.976;2022-08-01T10:19:49;99913.48;;;26.06;48.34
59686;BME280;45554;51.096;16.976;2022-08-01T10:22:25;99912.31;;;26.16;48.04
59686;BME280;45554;51.096;16.976;2022-08-01T10:25:01;99909.16;;;26.16;47.58
59686;BME280;45554;51.096;16.976;2022-08-01T10:27:32;99911.92;;;26.17;47.41
59686;BME280;45554;51.096;16.976;2022-08-01T10:30:06;99915.48;;;26.22;46.93
59686;BME280;45554;51.096;16.976;2022-08-01T10:32:50;99915.04;;;26.35;46.73
59686;BME280;45554;51.096;16.976;2022-08-01T10:35:22;99910.84;;;26.49;46.59
59686;BME280;45554;51.096;16.976;2022-08-01T10:38:09;99910.55;;;26.57;46.43
59686;BME280;45554;51.096;16.976;2022-08-01T10:40:44;99904.45;;;26.67;46.75
59686;BME280;45554;51.096;16.976;2022-08-01T10:43:15;99910.49;;;26.89;46.52
59686;BME280;45554;51.096;16.976;2022-08-01T10:45:49;99902.66;;;27.15;46.60
59686;BME280;45554;51.096;16.976;2022-08-01T10:48:24;99903.92;;;27.40;45.86
59686;BME280;45554;51.096;16.976;2022-08-01T10:50:59;99903.89;;;27.52;45.20
59686;BME280;45554;51.096;16.976;2022-08-01T10:53:28;99902.77;;;27.58;44.94
59686;BME280;45554;51.096;16.976;2022-08-01T10:56:11;99904.48;;;27.65;44.72
59686;BME280;45554;51.096;16.976;2022-08-01T10:58:43;99895.20;;;27.70;44.72
59686;BME280;45554;51.096;16.976;2022-08-01T11:01:40;99895.29;;;27.79;44.90
59686;BME280;45554;51.096;16.976;2022-08-01T11:04:13;99898.53;;;27.91;44.75
59686;BME280;45554;51.096;16.976;2022-08-01T11:07:03;99901.31;;;27.92;44.19
59686;BME280;45554;51.096;16.976;2022-08-01T11:09:42;99904.81;;;27.83;43.73
59686;BME280;45554;51.096;16.976;2022-08-01T11:12:18;99908.05;;;27.68;43.96
59686;BME280;45554;51.096;16.976;2022-08-01T11:20:14;99905.80;;;27.65;44.18
59686;BME280;45554;51.096;16.976;2022-08-01T11:28:34;99904.30;;;27.83;43.33
59686;BME280;45554;51.096;16.976;2022-08-01T11:38:44;99901.73;;;28.28;42.18
59686;BME280;45554;51.096;16.976;2022-08-01T11:41:20;99900.89;;;28.31;41.36
59686;BME280;45554;51.096;16.976;2022-08-01T11:44:09;99900.23;;;28.33;40.95
59686;BME280;45554;51.096;16.976;2022-08-01T11:49:23;99900.81;;;28.34;41.58
59686;BME280;45554;51.096;16.976;2022-08-01T11:54:41;99901.30;;;28.39;41.00
59686;BME280;45554;51.096;16.976;2022-08-01T11:57:30;99900.05;;;28.39;41.17
59686;BME280;45554;51.096;16.976;2022-08-01T12:00:14;99902.00;;;28.39;41.42
59686;BME280;45554;51.096;16.976;2022-08-01T12:02:46;99903.50;;;28.41;41.13
59686;BME280;45554;51.096;16.976;2022-08-01T12:05:16;99894.71;;;28.47;41.42
59686;BME280;45554;51.096;16.976;2022-08-01T12:07:52;99899.66;;;28.48;40.92
59686;BME280;45554;51.096;16.976;2022-08-01T12:10:23;99892.79;;;28.50;41.27
59686;BME280;45554;51.096;16.976;2022-08-01T12:12:59;99896.72;;;28.63;41.29
59686;BME280;45554;51.096;16.976;2022-08-01T12:15:34;99892.66;;;28.82;40.74
59686;BME280;45554;51.096;16.976;2022-08-01T12:18:04;99894.88;;;28.88;40.62
59686;BME280;45554;51.096;16.976;2022-08-01T12:20:36;99890.12;;;28.89;40.23
59686;BME280;45554;51.096;16.976;2022-08-01T12:23:20;99889.54;;;28.95;40.09
59686;BME280;45554;51.096;16.976;2022-08-01T12:25:52;99895.15;;;28.88;39.61
59686;BME280;45554;51.096;16.976;2022-08-01T12:28:20;99897.06;;;28.71;40.08
59686;BME280;45554;51.096;16.976;2022-08-01T12:30:49;99906.76;;;28.52;40.22
59686;BME280;45554;51.096;16.976;2022-08-01T12:33:19;99901.27;;;28.35;40.13
59686;BME280;45554;51.096;16.976;2022-08-01T12:35:47;99900.17;;;28.25;40.81
59686;BME280;45554;51.096;16.976;2022-08-01T12:38:19;99895.33;;;28.17;40.89
59686;BME280;45554;51.096;16.976;2022-08-01T12:40:51;99892.52;;;28.08;40.75
59686;BME280;45554;51.096;16.976;2022-08-01T12:43:22;99892.21;;;27.95;40.86
59686;BME280;45554;51.096;16.976;2022-08-01T12:45:58;99886.91;;;27.84;41.33
59686;BME280;45554;51.096;16.976;2022-08-01T12:48:29;99886.61;;;27.75;41.85
59686;BME280;45554;51.096;16.976;2022-08-01T12:50:59;99891.51;;;27.67;42.13
59686;BME280;45554;51.096;16.976;2022-08-01T12:53:33;99894.45;;;27.61;42.50
59686;BME280;45554;51.096;16.976;2022-08-01T12:56:09;99896.70;;;27.58;42.73
59686;BME280;45554;51.096;16.976;2022-08-01T12:58:40;99898.54;;;27.54;42.62
59686;BME280;45554;51.096;16.976;2022-08-01T13:01:10;99895.94;;;27.57;42.61
59686;BME280;45554;51.096;16.976;2022-08-01T13:03:39;99889.23;;;27.76;42.50
59686;BME280;45554;51.096;16.976;2022-08-01T13:06:12;99887.84;;;28.26;41.94
59686;BME280;45554;51.096;16.976;2022-08-01T13:08:44;99876.19;;;28.73;42.27
59686;BME280;45554;51.096;16.976;2022-08-01T13:11:14;99875.49;;;29.07;41.83
59686;BME280;45554;51.096;16.976;2022-08-01T13:13:49;99878.70;;;29.25;41.26
59686;BME280;45554;51.096;16.976;2022-08-01T13:16:27;99875.92;;;29.38;41.01
59686;BME280;45554;51.096;16.976;2022-08-01T13:19:18;99870.06;;;29.40;40.55
59686;BME280;45554;51.096;16.976;2022-08-01T13:21:56;99870.95;;;29.35;40.46
59686;BME280;45554;51.096;16.976;2022-08-01T13:24:26;99873.05;;;29.32;40.83
59686;BME280;45554;51.096;16.976;2022-08-01T13:26:57;99874.84;;;29.31;39.85
59686;BME280;45554;51.096;16.976;2022-08-01T13:29:36;99873.29;;;29.37;39.17
59686;BME280;45554;51.096;16.976;2022-08-01T13:32:19;99871.93;;;29.56;38.79
59686;BME280;45554;51.096;16.976;2022-08-01T13:35:03;99876.88;;;29.58;38.47
59686;BME280;45554;51.096;16.976;2022-08-01T13:37:32;99868.41;;;29.58;38.86
59686;BME280;45554;51.096;16.976;2022-08-01T13:40:00;99874.96;;;29.62;38.89
59686;BME280;45554;51.096;16.976;2022-08-01T13:42:29;99884.44;;;29.60;38.73
59686;BME280;45554;51.096;16.976;2022-08-01T13:44:58;99892.02;;;29.55;38.50
59686;BME280;45554;51.096;16.976;2022-08-01T13:47:26;99888.13;;;29.52;38.60
59686;BME280;45554;51.096;16.976;2022-08-01T13:50:00;99882.43;;;29.61;38.06